CheckWX is a tool to help pilots better visualize weather data.  It is not intended as a substitute for an official pre-flight weather briefing.

01:48:17 UTC

CYIK METAR
Ivujivik Airport
Ivujivik, Canada
Current

4 hours ago

CYIK 232200Z 15013KT 15SM DRSN FEW010 FEW045 BKN090 M23/M26 A2994 RMK ST1SC1AC5 ST TR SN CVR TR LOOSE LAST STFD OBS/NEXT 241300UTC SLP147
Observed
Feb-23 @ 22:00 UTC
Wind
  • 150° at 13 KTS
Visibility
15 SM
Flight Rules
VFR
Conditions
Low drifting Snow
Cloud Levels
  • Few at 1,000' AGL
  • Few at 4,500' AGL
  • Broken at 9,000' AGL
Temperature
-23°C / -9°F
Dewpoint
-26°C / -15°F
Humidity
77%
Altimeter
29.94" Hg
Pressure
1014.7 hPa
Previous

5 hours ago

CYIK 232100Z 15014KT 15SM DRSN FEW010 FEW035 FEW040 FEW050 BKN090 M23/M27 A2995 RMK ST1SC1SC1SC1AC5 ST TR SC TR SC TR SC TR SLP148
Observed
Feb-23 @ 21:00 UTC
Wind
  • 150° at 14 KTS
Visibility
15 SM
Flight Rules
VFR
Conditions
Low drifting Snow
Cloud Levels
  • Few at 1,000' AGL
  • Few at 3,500' AGL
  • Few at 4,000' AGL
  • Few at 5,000' AGL
Temperature
-23°C / -9°F
Dewpoint
-27°C / -17°F
Humidity
70%
Altimeter
29.95" Hg
Pressure
1014.8 hPa
Previous

6 hours ago

CYIK 232000Z 15016KT 15SM DRSN FEW035 FEW040 FEW050 FEW150 M23/M26 A2994 RMK SC1SC1SC1AS1 SC TR SC TR AS TR SLP147
Observed
Feb-23 @ 20:00 UTC
Wind
  • 150° at 16 KTS
Visibility
15 SM
Flight Rules
VFR
Conditions
Low drifting Snow
Cloud Levels
  • Few at 3,500' AGL
  • Few at 4,000' AGL
  • Few at 5,000' AGL
  • Few at 15,000' AGL
Temperature
-23°C / -9°F
Dewpoint
-26°C / -15°F
Humidity
77%
Altimeter
29.94" Hg
Pressure
1014.7 hPa